Vega, Texas
Current Conditions -  °F | °C
As of 10:55 AM on Saturday 25 Oct 2014 (Local Time) from KHRX Reporting Station
Clear Clear  
Wind Chill: 73°   Ceiling: Unl
Heat Index: 73°   Visibility: 10mi
Dew Point: 54°   Wind: 16mph
Humidity: 51%   Direction: 170°S
Pressure: 30.22"   Gusts: 21mph
Location:  35.24°N, 102.43°W
Report Text: KHRX 251555Z AUTO 17014G18KT 10SM CLR 23/12 A3022 RMK AO2 T02250120
Loading
Personal Weather Stations






























Interactive Weather Map
Tropical Storm Tracking
New forecast layout! Learn more

10-Day Weather Forecast

Advertisements
Track Severe Weather on mobile